Terminal Aerodrome Forecast
Issued by NWS

Home | Current Version | Previous Version | Text Only | Print | Product List | Glossary On
Versions: 1 2 3 4 5 6 7 8 9 10 11 12 13
000
FTUS44 KOUN 300528
TAFHBR
TAF
KHBR 300528Z 3006/3106 09007KT P6SM BKN250
     FM301000 14008KT P6SM BKN080
     FM301500 19014KT P6SM SCT250
     FM310000 16013KT P6SM SCT250=

USA.gov is the U.S. government's official web portal to all federal, state and local government web resources and services.